Time;durP1;ratioP1;P1;durP2;ratioP2;P2;SDS_P1;SDS_P2;PMS_P1;PMS_P2;Temp;Humidity;BMP_temperature;BMP_pressure;BME280_temperature;BME280_humidity;BME280_pressure;Samples;Min_cycle;Max_cycle;Signal;HPM_P1;HPM_P2
2024/01/07 00:01:49;;;;;;;76.17;39.50;;;3.60;99.90;;;;;;4260282;27;20286;-61
2024/01/07 00:03:52;;;;;;;76.80;42.07;;;3.60;99.90;;;;;;4259929;27;20270;-60
2024/01/07 00:05:53;;;;;;;69.87;38.97;;;3.60;99.90;;;;;;4261869;27;20379;-61
2024/01/07 00:07:54;;;;;;;76.77;38.97;;;3.60;99.90;;;;;;4260608;27;20266;-61
2024/01/07 00:09:55;;;;;;;68.13;38.87;;;3.60;99.90;;;;;;4261448;27;20315;-62
2024/01/07 00:11:56;;;;;;;74.23;41.60;;;3.60;99.90;;;;;;4261490;27;20259;-61
2024/01/07 00:13:58;;;;;;;78.40;43.17;;;3.60;99.90;;;;;;4261502;27;20342;-61
2024/01/07 00:15:59;;;;;;;80.07;41.40;;;3.60;99.90;;;;;;4261448;27;20598;-61
2024/01/07 00:18:00;;;;;;;73.03;40.17;;;3.60;99.90;;;;;;4261529;27;20303;-61
2024/01/07 00:20:01;;;;;;;75.43;41.90;;;3.60;99.90;;;;;;4261309;27;20312;-63
2024/01/07 00:22:03;;;;;;;75.10;40.00;;;3.60;99.90;;;;;;4261660;27;20754;-62
2024/01/07 00:24:04;;;;;;;77.27;41.27;;;3.60;99.90;;;;;;4261552;27;20263;-65
2024/01/07 00:26:06;;;;;;;77.37;41.03;;;3.60;99.90;;;;;;4260771;27;20676;-62
2024/01/07 00:28:07;;;;;;;80.60;42.53;;;3.60;99.90;;;;;;4261484;27;20335;-68
2024/01/07 00:30:08;;;;;;;78.13;40.80;;;3.60;99.90;;;;;;4260941;27;20052;-60
2024/01/07 00:32:10;;;;;;;67.47;37.23;;;3.60;99.90;;;;;;4261405;27;20821;-60
2024/01/07 00:34:11;;;;;;;70.13;37.30;;;3.60;99.90;;;;;;4260974;27;21622;-66
2024/01/07 00:36:12;;;;;;;61.97;34.77;;;3.60;99.90;;;;;;4261401;27;20262;-66
2024/01/07 00:38:13;;;;;;;68.03;36.20;;;3.60;99.90;;;;;;4260639;27;20725;-60
2024/01/07 00:40:15;;;;;;;63.90;34.33;;;3.60;99.90;;;;;;4260559;27;20270;-61
2024/01/07 00:42:16;;;;;;;64.20;35.53;;;3.60;99.90;;;;;;4260989;27;20730;-61
2024/01/07 00:44:17;;;;;;;65.90;34.30;;;3.60;99.90;;;;;;4261235;27;20583;-68
2024/01/07 00:46:18;;;;;;;68.47;34.80;;;3.60;99.90;;;;;;4260484;27;20299;-64
2024/01/07 00:48:19;;;;;;;62.70;35.13;;;3.60;99.90;;;;;;4261111;27;20266;-66
2024/01/07 00:50:20;;;;;;;58.43;33.17;;;3.60;99.90;;;;;;4261066;27;20262;-64
2024/01/07 00:52:23;;;;;;;58.77;31.70;;;3.70;99.90;;;;;;4260160;27;20290;-66
2024/01/07 00:54:24;;;;;;;64.67;34.43;;;3.60;99.90;;;;;;4261097;27;20273;-63
2024/01/07 00:56:28;;;;;;;58.57;32.90;;;3.60;99.90;;;;;;4260876;27;20311;-61
2024/01/07 00:58:29;;;;;;;53.47;28.93;;;3.60;99.90;;;;;;4260571;27;20275;-66
2024/01/07 01:00:30;;;;;;;55.33;30.37;;;3.60;99.90;;;;;;4260160;27;20372;-63
2024/01/07 01:02:31;;;;;;;56.70;30.57;;;3.50;99.90;;;;;;4259155;27;20270;-61
2024/01/07 01:04:32;;;;;;;55.27;31.97;;;3.60;99.90;;;;;;4260438;27;20279;-61
2024/01/07 01:06:34;;;;;;;62.10;34.03;;;3.60;99.90;;;;;;4260389;27;20331;-63
2024/01/07 01:08:35;;;;;;;53.27;30.43;;;3.60;99.90;;;;;;4260635;27;20782;-62
2024/01/07 01:10:36;;;;;;;49.47;28.13;;;3.60;99.90;;;;;;4260556;27;20588;-60
2024/01/07 01:12:37;;;;;;;47.77;28.70;;;3.60;99.90;;;;;;4260577;27;20823;-64
2024/01/07 01:14:38;;;;;;;47.20;28.10;;;3.60;99.90;;;;;;4260799;27;20263;-60
2024/01/07 01:16:39;;;;;;;56.17;28.80;;;3.60;99.90;;;;;;4260132;27;20308;-62
2024/01/07 01:18:41;;;;;;;55.07;30.87;;;3.60;99.90;;;;;;4260317;27;20697;-60
2024/01/07 01:20:42;;;;;;;54.47;29.67;;;3.60;99.90;;;;;;4264338;27;20374;-62
2024/01/07 01:22:43;;;;;;;59.47;30.37;;;3.60;99.90;;;;;;4264388;27;20327;-63
2024/01/07 01:24:45;;;;;;;59.30;29.27;;;3.60;99.90;;;;;;4263362;27;20267;-60
2024/01/07 01:26:47;;;;;;;56.07;30.43;;;3.60;99.90;;;;;;4263382;27;20255;-60
2024/01/07 01:28:48;;;;;;;62.50;30.47;;;3.60;99.90;;;;;;4264313;27;20292;-60
2024/01/07 01:30:49;;;;;;;57.23;29.77;;;3.50;99.90;;;;;;4263681;27;20262;-65
2024/01/07 01:32:50;;;;;;;54.13;29.70;;;3.50;99.90;;;;;;4264033;27;20294;-60
2024/01/07 01:34:51;;;;;;;54.10;29.03;;;3.50;99.90;;;;;;4262889;27;20259;-62
2024/01/07 01:36:52;;;;;;;59.63;31.33;;;3.60;99.90;;;;;;4263464;27;20323;-66
2024/01/07 01:38:54;;;;;;;55.80;31.27;;;3.50;99.90;;;;;;4263502;27;20319;-61
2024/01/07 01:40:55;;;;;;;53.80;29.50;;;3.60;99.90;;;;;;4263862;27;20267;-66
2024/01/07 01:42:56;;;;;;;59.57;32.13;;;3.60;99.90;;;;;;4263609;27;20263;-61
2024/01/07 01:45:01;;;;;;;54.10;29.10;;;3.60;99.90;;;;;;4263619;27;20819;-62
2024/01/07 01:47:02;;;;;;;52.07;29.30;;;3.60;99.90;;;;;;4263998;27;20378;-62
2024/01/07 01:49:04;;;;;;;52.07;26.90;;;3.60;99.90;;;;;;4263912;27;20319;-61
2024/01/07 01:51:05;;;;;;;56.37;27.20;;;3.60;99.90;;;;;;4264091;27;20251;-61
2024/01/07 01:53:06;;;;;;;45.77;24.00;;;3.60;99.90;;;;;;4263077;27;20343;-61
2024/01/07 01:55:08;;;;;;;30.67;17.43;;;3.60;99.90;;;;;;4263605;27;20315;-61
2024/01/07 01:57:16;;;;;;;31.00;18.07;;;3.50;99.90;;;;;;4263663;27;20262;-61
2024/01/07 01:59:18;;;;;;;32.60;18.37;;;3.30;99.90;;;;;;4263898;27;20327;-59
2024/01/07 02:01:19;;;;;;;31.00;18.13;;;3.10;99.90;;;;;;4263107;27;20783;-62
2024/01/07 02:03:20;;;;;;;30.17;17.63;;;3.00;99.90;;;;;;4263894;27;20730;-62
2024/01/07 02:05:22;;;;;;;33.03;17.83;;;3.00;99.90;;;;;;4263266;27;20664;-61
2024/01/07 02:07:28;;;;;;;35.33;19.30;;;3.00;99.90;;;;;;4263576;27;20727;-61
2024/01/07 02:09:29;;;;;;;32.97;18.47;;;3.10;99.90;;;;;;4262328;27;20267;-66
2024/01/07 02:11:30;;;;;;;33.77;17.60;;;3.00;99.90;;;;;;4263752;27;20270;-61
2024/01/07 02:13:31;;;;;;;34.53;18.13;;;3.10;99.90;;;;;;4263313;27;20826;-61
2024/01/07 02:15:34;;;;;;;37.80;20.03;;;3.10;99.90;;;;;;4263330;27;20259;-65
2024/01/07 02:17:35;;;;;;;38.50;21.00;;;3.10;99.90;;;;;;4263365;27;20746;-62
2024/01/07 02:19:36;;;;;;;42.90;22.67;;;3.10;99.90;;;;;;4262095;27;20271;-62
2024/01/07 02:21:37;;;;;;;37.43;21.17;;;3.20;99.90;;;;;;4263266;27;20286;-66
2024/01/07 02:23:39;;;;;;;45.87;22.87;;;3.10;99.90;;;;;;4263255;27;20320;-61
2024/01/07 02:25:40;;;;;;;51.33;26.23;;;3.10;99.90;;;;;;4262567;27;20916;-61
2024/01/07 02:27:41;;;;;;;49.03;26.60;;;3.00;99.90;;;;;;4263272;27;20319;-62
2024/01/07 02:29:42;;;;;;;47.00;25.07;;;3.00;99.90;;;;;;4263186;27;20263;-61
2024/01/07 02:31:43;;;;;;;46.60;25.30;;;3.00;99.90;;;;;;4261758;27;20303;-66
2024/01/07 02:33:45;;;;;;;46.13;26.23;;;3.00;99.90;;;;;;4263410;27;20294;-60
2024/01/07 02:35:46;;;;;;;49.67;26.20;;;3.00;99.90;;;;;;4262755;27;20306;-63
2024/01/07 02:37:47;;;;;;;46.50;26.03;;;3.00;99.90;;;;;;4263288;27;20267;-61
2024/01/07 02:39:48;;;;;;;51.47;25.93;;;3.00;99.90;;;;;;4262458;27;20275;-61
2024/01/07 02:41:50;;;;;;;48.33;26.67;;;3.00;99.90;;;;;;4261635;27;20808;-61
2024/01/07 02:43:51;;;;;;;51.03;27.60;;;3.10;99.90;;;;;;4262724;27;20267;-61
2024/01/07 02:45:52;;;;;;;48.30;26.57;;;3.10;99.90;;;;;;4263001;27;20270;-61
2024/01/07 02:47:53;;;;;;;46.77;24.73;;;3.10;99.90;;;;;;4262577;27;20335;-61
2024/01/07 02:49:55;;;;;;;51.20;23.83;;;3.10;99.90;;;;;;4262912;27;20739;-61
2024/01/07 02:51:56;;;;;;;46.17;22.93;;;3.10;99.90;;;;;;4263307;27;20278;-61
2024/01/07 02:53:57;;;;;;;43.50;24.43;;;3.20;99.90;;;;;;4262845;27;20347;-61
2024/01/07 02:55:59;;;;;;;44.67;23.07;;;3.20;99.90;;;;;;4260668;27;20386;-63
2024/01/07 02:58:00;;;;;;;37.87;21.33;;;3.30;99.90;;;;;;4262789;27;20811;-68
2024/01/07 03:00:02;;;;;;;39.07;22.00;;;3.30;99.90;;;;;;4262681;27;20271;-61
2024/01/07 03:02:03;;;;;;;44.83;22.53;;;3.30;99.90;;;;;;4262644;27;20300;-61
2024/01/07 03:04:04;;;;;;;43.30;22.87;;;3.30;99.90;;;;;;4262074;27;20669;-62
2024/01/07 03:06:06;;;;;;;40.80;21.73;;;3.30;99.90;;;;;;4262496;27;20688;-60
2024/01/07 03:08:07;;;;;;;40.50;22.60;;;3.20;99.90;;;;;;4262875;27;20299;-61
2024/01/07 03:10:09;;;;;;;39.70;22.27;;;3.20;99.90;;;;;;4262330;27;20275;-67
2024/01/07 03:12:10;;;;;;;41.90;23.27;;;3.10;99.90;;;;;;4262668;27;20263;-62
2024/01/07 03:14:12;;;;;;;39.63;22.10;;;3.10;99.90;;;;;;4262156;27;20286;-61
2024/01/07 03:16:23;;;;;;;39.13;22.03;;;3.10;99.90;;;;;;4262328;27;20652;-67
2024/01/07 03:18:25;;;;;;;39.10;21.03;;;3.20;99.90;;;;;;4262286;27;20258;-60
2024/01/07 03:20:27;;;;;;;42.30;22.60;;;3.20;99.90;;;;;;4262559;27;20263;-61
2024/01/07 03:22:28;;;;;;;37.23;21.13;;;3.30;99.90;;;;;;4262714;27;20289;-62
2024/01/07 03:24:29;;;;;;;40.70;21.47;;;3.30;99.90;;;;;;4262016;27;20267;-61
2024/01/07 03:26:33;;;;;;;44.27;22.73;;;3.30;99.90;;;;;;4262256;27;20263;-63
2024/01/07 03:28:34;;;;;;;41.13;22.27;;;3.30;99.90;;;;;;4262396;27;20814;-60
2024/01/07 03:30:35;;;;;;;39.77;22.40;;;3.30;99.90;;;;;;4261970;27;20271;-61
2024/01/07 03:32:37;;;;;;;41.57;22.57;;;3.30;99.90;;;;;;4261817;27;20815;-66
2024/01/07 03:34:39;;;;;;;42.37;22.53;;;3.30;99.90;;;;;;4261948;27;20732;-64
2024/01/07 03:36:40;;;;;;;40.37;21.23;;;3.30;99.90;;;;;;4261958;27;20665;-67
2024/01/07 03:38:42;;;;;;;41.23;21.83;;;3.20;99.90;;;;;;4262251;27;20794;-61
2024/01/07 03:40:43;;;;;;;45.23;24.13;;;3.20;99.90;;;;;;4261427;27;20698;-68
2024/01/07 03:42:44;;;;;;;40.73;24.00;;;3.20;99.90;;;;;;4261966;27;20653;-61
2024/01/07 03:44:45;;;;;;;43.47;23.07;;;3.20;99.90;;;;;;4261706;27;20803;-62
2024/01/07 03:46:46;;;;;;;43.23;23.67;;;3.10;99.90;;;;;;4261346;27;20827;-62
2024/01/07 03:48:47;;;;;;;40.70;23.13;;;3.10;99.90;;;;;;4261667;27;20258;-60
2024/01/07 03:50:49;;;;;;;41.47;22.87;;;3.00;99.90;;;;;;4262035;27;20282;-61
2024/01/07 03:52:50;;;;;;;41.57;22.97;;;3.00;99.90;;;;;;4260249;27;20356;-62
2024/01/07 03:54:51;;;;;;;44.27;23.60;;;3.00;99.90;;;;;;4261663;27;20359;-62
2024/01/07 03:56:52;;;;;;;48.13;24.20;;;3.00;99.90;;;;;;4261461;27;20274;-64
2024/01/07 03:58:54;;;;;;;43.07;25.23;;;3.00;99.90;;;;;;4261503;27;20262;-62
2024/01/07 04:00:55;;;;;;;43.27;24.47;;;3.00;99.90;;;;;;4260730;27;20303;-62
2024/01/07 04:02:56;;;;;;;44.17;23.10;;;3.00;99.90;;;;;;4261709;27;20259;-67
2024/01/07 04:04:57;;;;;;;41.97;23.07;;;3.00;99.90;;;;;;4261061;27;20818;-61
2024/01/07 04:06:58;;;;;;;43.90;24.33;;;2.90;99.90;;;;;;4260643;27;20267;-61
2024/01/07 04:08:59;;;;;;;39.40;21.60;;;2.90;99.90;;;;;;4261751;27;20726;-61
2024/01/07 04:11:02;;;;;;;42.67;23.00;;;2.90;99.90;;;;;;4260516;27;20286;-68
2024/01/07 04:13:04;;;;;;;43.40;23.77;;;2.90;99.90;;;;;;4261697;27;20291;-58
2024/01/07 04:15:05;;;;;;;42.70;23.43;;;2.90;99.90;;;;;;4260983;27;20755;-60
2024/01/07 04:17:08;;;;;;;39.73;22.37;;;2.90;99.90;;;;;;4259430;27;20957;-61
2024/01/07 04:19:09;;;;;;;40.40;22.73;;;2.90;99.90;;;;;;4261087;27;20671;-64
2024/01/07 04:21:11;;;;;;;41.37;23.63;;;2.90;99.90;;;;;;4261262;27;20271;-61
2024/01/07 04:23:12;;;;;;;46.83;25.23;;;2.90;99.90;;;;;;4260169;27;20275;-64
2024/01/07 04:25:13;;;;;;;48.00;23.13;;;2.90;99.90;;;;;;4260521;27;20279;-61
2024/01/07 04:27:14;;;;;;;41.53;22.67;;;2.80;99.90;;;;;;4261390;27;20266;-61
2024/01/07 04:29:15;;;;;;;43.07;24.37;;;2.90;99.90;;;;;;4261404;27;20315;-60
2024/01/07 04:31:17;;;;;;;41.23;23.30;;;2.80;99.90;;;;;;4261236;27;20254;-60
2024/01/07 04:33:18;;;;;;;41.73;23.87;;;2.80;99.90;;;;;;4261077;27;20331;-64
2024/01/07 04:35:19;;;;;;;42.10;23.23;;;2.80;99.90;;;;;;4261045;27;20319;-65
2024/01/07 04:37:20;;;;;;;40.07;22.10;;;2.80;99.90;;;;;;4260708;27;20279;-61
2024/01/07 04:39:21;;;;;;;45.63;24.20;;;2.80;99.90;;;;;;4261317;27;20262;-64
2024/01/07 04:41:23;;;;;;;41.60;24.07;;;2.80;99.90;;;;;;4258863;27;20307;-61
2024/01/07 04:43:25;;;;;;;50.03;24.67;;;2.80;99.90;;;;;;4260939;27;20750;-67
2024/01/07 04:45:26;;;;;;;46.90;24.83;;;2.70;99.90;;;;;;4260490;27;20311;-62
2024/01/07 04:47:34;;;;;;;41.67;23.37;;;2.70;99.90;;;;;;4261378;27;20267;-60
2024/01/07 04:49:35;;;;;;;44.67;24.03;;;2.70;99.90;;;;;;4260348;27;20258;-60
2024/01/07 04:51:39;;;;;;;47.27;24.13;;;2.60;99.90;;;;;;4261372;27;20339;-63
2024/01/07 04:53:40;;;;;;;45.80;24.83;;;2.60;99.90;;;;;;4259791;27;20700;-67
2024/01/07 04:55:41;;;;;;;41.17;23.77;;;2.60;99.90;;;;;;4259199;27;20260;-60
2024/01/07 04:57:42;;;;;;;45.57;24.83;;;2.60;99.90;;;;;;4260567;27;20287;-63
2024/01/07 04:59:44;;;;;;;43.00;22.67;;;2.60;99.90;;;;;;4260937;27;20258;-60
2024/01/07 05:01:45;;;;;;;42.83;23.87;;;2.50;99.90;;;;;;4260235;27;20688;-61
2024/01/07 05:03:47;;;;;;;42.37;22.97;;;2.50;99.90;;;;;;4260848;27;20288;-68
2024/01/07 05:05:48;;;;;;;39.27;22.47;;;2.60;99.90;;;;;;4260894;27;20278;-61
2024/01/07 05:07:49;;;;;;;36.33;20.90;;;2.60;99.90;;;;;;4260873;27;20313;-61
2024/01/07 05:09:50;;;;;;;41.33;22.80;;;2.60;99.90;;;;;;4260581;27;20319;-61
2024/01/07 05:11:51;;;;;;;40.80;23.30;;;2.60;99.90;;;;;;4260688;27;20295;-60
2024/01/07 05:13:52;;;;;;;44.07;23.77;;;2.60;99.90;;;;;;4259125;27;20287;-61
2024/01/07 05:15:53;;;;;;;39.30;22.07;;;2.60;99.90;;;;;;4260350;27;20312;-69
2024/01/07 05:17:55;;;;;;;39.57;22.60;;;2.60;99.90;;;;;;4260222;27;20258;-68
2024/01/07 05:19:56;;;;;;;40.33;23.37;;;2.60;99.90;;;;;;4260505;27;20316;-61
2024/01/07 05:21:58;;;;;;;45.47;23.40;;;2.60;99.90;;;;;;4261346;27;20320;-67
2024/01/07 05:23:59;;;;;;;45.00;24.90;;;2.60;99.90;;;;;;4260005;27;20353;-61
2024/01/07 05:26:00;;;;;;;44.80;23.67;;;2.50;99.90;;;;;;4260907;27;20267;-67
2024/01/07 05:28:02;;;;;;;43.03;24.27;;;2.50;99.90;;;;;;4260717;27;20275;-61
2024/01/07 05:30:03;;;;;;;46.00;22.80;;;2.50;99.90;;;;;;4258498;27;20295;-65
2024/01/07 05:32:05;;;;;;;42.57;22.70;;;2.50;99.90;;;;;;4260172;27;20270;-62
2024/01/07 05:34:06;;;;;;;43.43;24.10;;;2.40;99.90;;;;;;4260159;27;20302;-61
2024/01/07 05:36:07;;;;;;;43.47;23.67;;;2.30;99.90;;;;;;4260391;27;20319;-64
2024/01/07 05:38:09;;;;;;;44.90;23.00;;;2.30;99.90;;;;;;4260581;27;20319;-64
2024/01/07 05:40:10;;;;;;;42.17;22.97;;;2.30;99.90;;;;;;4260603;27;20699;-61
2024/01/07 05:42:11;;;;;;;49.27;24.90;;;2.40;99.90;;;;;;4260551;27;20271;-63
2024/01/07 05:44:12;;;;;;;52.37;25.13;;;2.30;99.90;;;;;;4260661;27;20266;-60
2024/01/07 05:46:14;;;;;;;42.30;22.93;;;2.30;99.90;;;;;;4259975;27;20330;-64
2024/01/07 05:48:15;;;;;;;40.20;23.13;;;2.30;99.90;;;;;;4260429;27;20315;-63
2024/01/07 05:50:18;;;;;;;44.83;23.10;;;2.30;99.90;;;;;;4260284;27;20259;-67
2024/01/07 05:52:20;;;;;;;43.80;23.70;;;2.30;99.90;;;;;;4260974;27;20314;-62
2024/01/07 05:54:22;;;;;;;40.40;21.70;;;2.20;99.90;;;;;;4259734;27;20355;-61
2024/01/07 05:56:23;;;;;;;36.70;20.97;;;2.20;99.90;;;;;;4258924;27;20347;-61
2024/01/07 05:58:24;;;;;;;40.70;20.10;;;2.20;99.90;;;;;;4260189;27;20275;-62
2024/01/07 06:00:25;;;;;;;38.20;20.80;;;2.20;99.90;;;;;;4259474;27;20294;-62
2024/01/07 06:02:27;;;;;;;32.50;19.77;;;2.10;99.90;;;;;;4260215;27;20669;-67
2024/01/07 06:04:28;;;;;;;39.40;20.83;;;2.10;99.90;;;;;;4260569;27;20830;-61
2024/01/07 06:06:29;;;;;;;34.47;18.37;;;2.10;99.90;;;;;;4262878;27;20275;-62
2024/01/07 06:08:30;;;;;;;32.57;18.23;;;2.00;99.90;;;;;;4263390;27;20305;-61
2024/01/07 06:10:31;;;;;;;35.03;18.50;;;2.00;99.90;;;;;;4263481;27;20263;-62
2024/01/07 06:12:32;;;;;;;33.10;18.07;;;2.00;99.90;;;;;;4263454;27;21157;-61
2024/01/07 06:14:33;;;;;;;30.83;18.50;;;2.00;99.90;;;;;;4263073;27;20298;-60
2024/01/07 06:16:35;;;;;;;33.17;18.40;;;2.00;99.90;;;;;;4262667;27;20267;-65
2024/01/07 06:18:36;;;;;;;35.73;19.27;;;2.00;99.90;;;;;;4263701;27;20259;-63
2024/01/07 06:20:37;;;;;;;44.33;22.53;;;2.00;99.90;;;;;;4261228;27;20271;-65
2024/01/07 06:22:38;;;;;;;41.73;21.83;;;2.00;99.90;;;;;;4263979;27;20263;-61
2024/01/07 06:24:39;;;;;;;35.83;20.30;;;2.00;99.90;;;;;;4262248;27;20274;-61
2024/01/07 06:26:40;;;;;;;37.07;21.80;;;2.00;99.90;;;;;;4263448;27;20270;-60
2024/01/07 06:28:42;;;;;;;43.50;21.93;;;2.00;99.90;;;;;;4262213;27;20315;-59
2024/01/07 06:30:43;;;;;;;33.73;19.67;;;2.00;99.90;;;;;;4263077;27;20266;-59
2024/01/07 06:32:45;;;;;;;39.60;21.70;;;2.00;99.90;;;;;;4262460;27;20312;-60
2024/01/07 06:34:46;;;;;;;36.67;20.30;;;2.00;99.90;;;;;;4262488;27;20696;-63
2024/01/07 06:36:47;;;;;;;39.33;20.90;;;1.90;99.90;;;;;;4261017;27;20328;-59
2024/01/07 06:38:49;;;;;;;39.07;20.33;;;2.00;99.90;;;;;;4262454;27;20802;-67
2024/01/07 06:40:50;;;;;;;35.97;20.57;;;2.00;99.90;;;;;;4262915;27;20381;-67
2024/01/07 06:42:51;;;;;;;39.07;21.50;;;2.00;99.90;;;;;;4262611;27;20312;-65
2024/01/07 06:44:52;;;;;;;39.47;21.10;;;2.00;99.90;;;;;;4262854;27;20668;-68
2024/01/07 06:46:53;;;;;;;41.40;20.60;;;2.00;99.90;;;;;;4262686;27;20270;-61
2024/01/07 06:48:55;;;;;;;38.10;20.50;;;2.00;99.90;;;;;;4263189;27;20274;-67
2024/01/07 06:50:57;;;;;;;36.53;19.50;;;2.10;99.90;;;;;;4260736;27;20263;-62
2024/01/07 06:52:58;;;;;;;35.00;20.70;;;2.10;99.90;;;;;;4263006;27;20742;-60
2024/01/07 06:54:59;;;;;;;35.30;19.90;;;2.10;99.90;;;;;;4261230;27;20335;-64
2024/01/07 06:57:00;;;;;;;35.93;21.83;;;2.10;99.90;;;;;;4262842;27;20310;-62
2024/01/07 06:59:01;;;;;;;40.67;23.27;;;2.20;99.90;;;;;;4262334;27;20267;-61
2024/01/07 07:01:02;;;;;;;43.80;23.40;;;2.30;99.90;;;;;;4262137;27;20270;-67
2024/01/07 07:03:05;;;;;;;46.60;24.20;;;2.30;99.90;;;;;;4262256;27;20255;-66
2024/01/07 07:05:07;;;;;;;43.70;22.67;;;2.40;99.90;;;;;;4260955;27;20319;-65
2024/01/07 07:07:08;;;;;;;39.67;20.87;;;2.50;99.90;;;;;;4262411;27;20315;-60
2024/01/07 07:09:12;;;;;;;37.47;22.03;;;2.60;99.90;;;;;;4262536;27;20263;-61
2024/01/07 07:11:13;;;;;;;35.70;21.37;;;2.70;99.90;;;;;;4262083;27;20319;-60
2024/01/07 07:13:14;;;;;;;35.13;20.90;;;2.80;99.90;;;;;;4262080;27;20263;-59
2024/01/07 07:15:16;;;;;;;36.63;20.83;;;2.90;99.90;;;;;;4262353;27;20656;-60
2024/01/07 07:17:17;;;;;;;31.90;18.33;;;3.00;99.90;;;;;;4261366;27;20280;-60
2024/01/07 07:19:18;;;;;;;36.23;19.23;;;3.00;99.90;;;;;;4262511;27;20315;-60
2024/01/07 07:21:19;;;;;;;40.23;20.63;;;3.00;99.90;;;;;;4261940;27;20607;-60
2024/01/07 07:23:21;;;;;;;37.40;21.93;;;3.10;99.90;;;;;;4262749;27;20389;-63
2024/01/07 07:25:22;;;;;;;40.80;22.43;;;3.10;99.90;;;;;;4261627;27;20259;-68
2024/01/07 07:27:23;;;;;;;37.77;20.77;;;3.20;99.90;;;;;;4262449;27;20262;-60
2024/01/07 07:29:24;;;;;;;34.73;20.70;;;3.30;99.90;;;;;;4261639;27;20815;-66
2024/01/07 07:31:25;;;;;;;45.50;22.60;;;3.40;99.90;;;;;;4261265;27;20338;-62
2024/01/07 07:33:27;;;;;;;45.83;24.63;;;3.50;99.90;;;;;;4261885;27;20267;-61
2024/01/07 07:35:28;;;;;;;50.23;25.47;;;3.50;99.90;;;;;;4261882;27;20360;-60
2024/01/07 07:37:29;;;;;;;51.43;26.47;;;3.70;99.90;;;;;;4262078;27;20259;-61
2024/01/07 07:39:30;;;;;;;54.03;27.33;;;3.80;99.90;;;;;;4243056;27;20304;-61
2024/01/07 07:41:32;;;;;;;54.57;29.50;;;3.90;99.90;;;;;;4261969;27;20411;-62
2024/01/07 07:43:33;;;;;;;66.20;31.53;;;4.00;99.90;;;;;;4261630;27;20327;-62
2024/01/07 07:45:34;;;;;;;65.83;32.97;;;4.20;99.90;;;;;;4261507;27;20291;-60
2024/01/07 07:47:35;;;;;;;58.27;29.77;;;4.30;99.90;;;;;;4261619;27;20636;-61
2024/01/07 07:49:39;;;;;;;57.10;30.07;;;4.40;99.90;;;;;;4261442;27;20103;-69
2024/01/07 07:51:41;;;;;;;47.43;26.80;;;4.60;99.90;;;;;;4261553;27;20077;-60
2024/01/07 07:53:42;;;;;;;50.30;25.93;;;4.80;99.90;;;;;;4262313;27;20034;-60
2024/01/07 07:55:44;;;;;;;44.90;25.20;;;4.90;99.90;;;;;;4261266;27;20099;-61
2024/01/07 07:57:46;;;;;;;45.40;24.47;;;5.00;99.90;;;;;;4261788;27;20048;-62
2024/01/07 07:59:50;;;;;;;40.77;23.00;;;5.10;99.90;;;;;;4260711;27;20042;-65
2024/01/07 08:01:51;;;;;;;37.70;19.97;;;5.10;99.90;;;;;;4261777;27;20050;-68
2024/01/07 08:03:52;;;;;;;37.97;22.17;;;5.10;99.90;;;;;;4261364;27;20019;-66
2024/01/07 08:05:54;;;;;;;32.73;19.70;;;5.20;99.90;;;;;;4261547;27;20535;-66
2024/01/07 08:07:56;;;;;;;33.47;18.23;;;5.30;99.90;;;;;;4261066;27;20538;-68
2024/01/07 08:09:57;;;;;;;35.40;21.10;;;5.20;99.90;;;;;;4261489;27;20027;-67
2024/01/07 08:11:58;;;;;;;34.77;19.60;;;5.20;99.90;;;;;;4261242;27;20047;-69
2024/01/07 08:14:01;;;;;;;32.97;19.30;;;5.10;99.90;;;;;;4261463;27;20026;-62
2024/01/07 08:16:03;;;;;;;49.00;26.63;;;5.10;99.90;;;;;;4261342;27;20765;-61
2024/01/07 08:18:05;;;;;;;51.63;26.80;;;5.00;99.90;;;;;;4261289;27;20027;-70
2024/01/07 08:20:06;;;;;;;56.83;26.47;;;5.00;99.90;;;;;;4261388;27;20026;-61
2024/01/07 08:22:09;;;;;;;48.87;26.67;;;5.00;99.90;;;;;;4261676;27;20133;-63
2024/01/07 08:24:11;;;;;;;69.47;33.87;;;4.80;99.90;;;;;;4261553;27;20026;-61
2024/01/07 08:26:12;;;;;;;76.33;34.83;;;4.70;99.90;;;;;;4259300;27;20489;-62
2024/01/07 08:28:13;;;;;;;77.83;37.07;;;4.70;99.90;;;;;;4261333;27;20131;-61
2024/01/07 08:30:15;;;;;;;79.00;39.47;;;4.80;99.90;;;;;;4258418;27;20060;-61
2024/01/07 08:32:16;;;;;;;80.97;39.03;;;4.90;99.90;;;;;;4253346;27;20042;-67
2024/01/07 08:34:17;;;;;;;79.67;35.37;;;4.90;99.90;;;;;;4260038;27;20095;-61
2024/01/07 08:36:18;;;;;;;68.87;34.47;;;5.00;99.90;;;;;;4260020;27;20498;-62
2024/01/07 08:38:19;;;;;;;54.33;29.57;;;5.20;99.90;;;;;;4248341;27;20486;-65
2024/01/07 08:40:21;;;;;;;53.87;28.50;;;5.50;99.90;;;;;;4250601;27;20074;-61
2024/01/07 08:42:23;;;;;;;49.87;26.27;;;5.50;99.90;;;;;;4255709;27;20733;-66
2024/01/07 08:44:24;;;;;;;48.20;26.67;;;5.50;99.90;;;;;;4248267;27;20046;-62
2024/01/07 08:46:25;;;;;;;46.80;26.37;;;5.60;99.90;;;;;;4249828;27;20035;-62
2024/01/07 08:48:26;;;;;;;44.87;24.63;;;5.70;99.90;;;;;;4243567;27;20023;-65
2024/01/07 08:50:27;;;;;;;48.80;25.83;;;5.90;99.90;;;;;;4243659;27;20027;-66
2024/01/07 08:52:29;;;;;;;40.03;22.03;;;6.00;99.90;;;;;;4243626;27;20068;-64
2024/01/07 08:54:30;;;;;;;35.23;20.03;;;5.90;99.90;;;;;;4243790;27;20088;-64
2024/01/07 08:56:31;;;;;;;33.60;20.53;;;5.80;99.90;;;;;;4243881;27;20362;-62
2024/01/07 08:58:32;;;;;;;31.03;18.07;;;5.70;99.90;;;;;;4241984;27;20039;-64
2024/01/07 09:00:34;;;;;;;31.50;17.43;;;5.80;99.90;;;;;;4242865;27;20071;-66
2024/01/07 09:02:35;;;;;;;30.87;16.73;;;5.90;99.90;;;;;;4253728;27;20035;-62
2024/01/07 09:04:37;;;;;;;25.63;15.03;;;5.90;99.90;;;;;;4260658;27;20060;-62
2024/01/07 09:06:39;;;;;;;30.60;17.20;;;6.00;99.90;;;;;;4260839;27;20034;-61
2024/01/07 09:08:40;;;;;;;29.57;18.00;;;6.10;99.90;;;;;;4260499;27;20081;-61
2024/01/07 09:10:41;;;;;;;27.57;17.83;;;6.20;99.90;;;;;;4260699;27;20035;-61
2024/01/07 09:12:42;;;;;;;27.77;16.63;;;6.30;99.90;;;;;;4259118;27;20038;-67
2024/01/07 09:14:44;;;;;;;29.67;16.77;;;6.30;99.90;;;;;;4260486;27;20074;-64
2024/01/07 09:16:45;;;;;;;30.57;16.30;;;6.30;99.90;;;;;;4260305;27;20023;-62
2024/01/07 09:18:46;;;;;;;32.80;18.07;;;6.40;99.90;;;;;;4260961;27;20474;-61
2024/01/07 09:20:47;;;;;;;31.50;17.97;;;6.30;99.90;;;;;;4260577;27;20127;-64
2024/01/07 09:22:48;;;;;;;35.33;18.00;;;6.30;99.90;;;;;;4261176;27;20428;-64
2024/01/07 09:24:49;;;;;;;30.47;16.60;;;6.20;99.90;;;;;;4260385;27;20046;-67
2024/01/07 09:26:51;;;;;;;29.30;17.33;;;6.20;99.90;;;;;;4260545;27;20080;-62
2024/01/07 09:28:52;;;;;;;28.73;17.53;;;6.20;99.90;;;;;;4258871;27;20107;-60
2024/01/07 09:30:53;;;;;;;30.23;18.17;;;6.20;99.90;;;;;;4259863;27;20088;-64
2024/01/07 09:32:54;;;;;;;38.83;17.50;;;6.30;99.90;;;;;;4260699;27;20537;-65
2024/01/07 09:34:56;;;;;;;33.47;19.13;;;6.40;99.90;;;;;;4260027;27;20088;-63
2024/01/07 09:36:57;;;;;;;31.83;18.20;;;6.50;99.90;;;;;;4260314;27;20039;-61
2024/01/07 09:38:58;;;;;;;29.27;18.47;;;6.60;99.90;;;;;;4260155;27;20030;-63
2024/01/07 09:40:59;;;;;;;34.73;20.07;;;6.80;99.90;;;;;;4262300;27;20435;-65
2024/01/07 09:43:00;;;;;;;31.33;18.50;;;6.90;99.90;;;;;;4263427;27;20084;-64
2024/01/07 09:45:04;;;;;;;35.03;20.60;;;7.10;99.90;;;;;;4262207;27;20645;-62
2024/01/07 09:47:08;;;;;;;35.17;19.63;;;7.20;99.90;;;;;;4263592;27;20027;-64
2024/01/07 09:49:10;;;;;;;31.87;18.63;;;7.30;99.90;;;;;;4263423;27;20173;-66
2024/01/07 09:51:11;;;;;;;35.27;20.27;;;7.30;99.90;;;;;;4263499;27;20026;-62
2024/01/07 09:53:16;;;;;;;30.93;18.47;;;7.50;99.90;;;;;;4263828;27;20031;-61
2024/01/07 09:55:30;;;;;;;30.60;18.93;;;7.40;99.90;;;;;;4262731;27;20538;-63
2024/01/07 09:57:33;;;;;;;30.93;17.90;;;7.50;99.90;;;;;;4263117;27;20095;-62
2024/01/07 09:59:39;;;;;;;30.50;19.07;;;7.70;99.90;;;;;;4263301;27;20083;-63
2024/01/07 10:01:41;;;;;;;31.43;17.60;;;7.80;99.90;;;;;;4262056;27;20050;-65
2024/01/07 10:03:42;;;;;;;35.13;21.33;;;8.00;99.90;;;;;;4263065;27;20039;-63
2024/01/07 10:05:43;;;;;;;34.43;19.67;;;8.10;99.90;;;;;;4263354;27;20034;-63
2024/01/07 10:07:44;;;;;;;33.63;17.97;;;8.30;99.90;;;;;;4263453;27;20435;-64
2024/01/07 10:09:46;;;;;;;17.80;11.47;;;8.30;99.90;;;;;;4262701;27;20031;-63
2024/01/07 10:11:47;;;;;;;19.67;12.30;;;8.30;99.90;;;;;;4263392;27;20034;-63
2024/01/07 10:13:49;;;;;;;19.83;12.17;;;8.50;99.90;;;;;;4262955;27;20075;-64
2024/01/07 10:15:50;;;;;;;15.73;9.77;;;8.70;99.90;;;;;;4262990;27;20043;-64
2024/01/07 10:17:56;;;;;;;17.77;10.43;;;8.80;99.90;;;;;;4263109;27;20095;-62
2024/01/07 10:19:57;;;;;;;20.70;10.07;;;8.90;99.90;;;;;;4262683;27;20047;-64
2024/01/07 10:22:03;;;;;;;15.63;10.00;;;9.10;99.90;;;;;;4262774;27;20091;-61
2024/01/07 10:24:10;;;;;;;14.27;8.57;;;9.10;99.90;;;;;;4263403;27;20072;-69
2024/01/07 10:26:11;;;;;;;17.23;9.93;;;9.10;99.90;;;;;;4262635;27;20103;-63